CST,Max TemperatureF,Mean TemperatureF,Min TemperatureF,Max Dew PointF,MeanDew PointF,Min DewpointF,Max Humidity, Mean Humidity, Min Humidity, Max Sea Level PressureIn, Mean Sea Level PressureIn, Min Sea Level PressureIn, Max VisibilityMiles, Mean VisibilityMiles, Min VisibilityMiles, Max Wind SpeedMPH, Mean Wind SpeedMPH, Max Gust SpeedMPH,PrecipitationIn, CloudCover, Events, WindDirDegrees
2013-11-1,50,45,39,44,41,39,96,84,71,29.79,29.64,29.50,10,9,6,17,8,23,0.02,6,Rain,264
2013-11-2,51,40,28,39,34,28,92,71,50,30.18,30.01,29.80,10,9,6,20,8,26,0.00,3,,302
2013-11-3,54,39,24,34,30,21,92,69,45,30.31,30.23,30.17,10,9,6,17,7,23,0.00,0,,129
2013-11-4,58,52,45,43,39,34,70,63,55,30.16,30.11,30.04,10,10,10,21,11,28,T,5,Rain,167
2013-11-5,56,53,50,54,50,43,96,81,66,30.21,30.08,29.87,10,7,1,22,9,30,0.16,8,Rain,159
2013-11-6,57,45,32,55,41,25,93,73,53,30.26,29.96,29.78,10,9,4,24,13,31,0.28,6,Rain,274
2013-11-7,45,36,27,32,28,23,85,69,53,30.30,30.28,30.25,10,10,7,21,8,28,0.00,3,,269
2013-11-8,50,37,24,33,28,23,85,65,45,30.33,30.14,29.86,10,10,10,24,10,33,0.00,0,,171
2013-11-9,60,51,42,37,35,30,70,57,44,30.23,30.01,29.86,10,10,10,26,15,37,0.00,0,,264
2013-11-10,49,40,31,30,28,26,78,62,46,30.42,30.32,30.22,10,10,8,22,8,31,0.00,3,,267
2013-11-11,49,36,23,34,28,14,92,73,53,30.63,30.32,30.11,10,8,1,18,10,26,0.05,7,Rain-Snow,331
2013-11-12,31,25,18,18,13,11,77,63,49,30.81,30.73,30.64,10,10,10,16,7,18,0.00,0,,304
2013-11-13,44,31,18,16,14,12,80,55,29,30.65,30.40,30.16,10,10,10,25,9,32,0.00,0,,215
2013-11-14,53,43,33,25,22,17,56,46,35,30.13,30.00,29.93,10,10,10,21,11,26,0.00,0,,216
2013-11-15,55,46,37,34,29,22,73,56,38,29.97,29.92,29.86,10,10,10,15,8,21,0.00,2,,194
2013-11-16,61,51,40,54,49,35,89,81,73,29.84,29.62,29.48,10,9,5,35,15,45,0.02,6,Rain-Thunderstorm,169
2013-11-17,71,57,43,61,48,36,93,80,66,29.88,29.46,29.18,10,9,1,36,15,45,0.28,6,Rain-Thunderstorm,257
2013-11-18,45,37,28,34,29,25,85,68,51,30.31,30.12,29.89,10,10,10,25,13,32,0.00,1,,288
2013-11-19,45,33,20,28,25,18,92,71,49,30.37,30.29,30.22,10,10,8,14,6,18,0.00,0,,114
2013-11-20,40,36,31,37,32,27,92,78,64,30.22,30.11,30.02,10,7,2,18,9,24,0.38,7,Rain,134
2013-11-21,45,40,34,40,37,34,100,91,82,30.28,30.16,30.07,6,4,0,10,4,15,0.01,6,Fog,354
2013-11-22,40,30,19,36,26,15,92,78,64,30.56,30.47,30.29,10,10,5,17,9,23,0.02,5,Rain,319
2013-11-23,25,19,13,15,8,3,84,62,40,30.79,30.69,30.55,10,10,10,21,11,28,0.00,1,,322
2013-11-24,29,19,8,9,6,3,83,59,34,30.78,30.62,30.37,10,10,10,15,6,18,0.00,0,,206
2013-11-25,35,29,22,25,20,10,72,61,50,30.35,30.18,30.11,10,9,2,18,9,25,T,7,Snow,226
2013-11-26,33,25,16,25,16,5,85,64,42,30.30,30.17,30.10,10,10,9,29,12,37,0.00,5,,302
2013-11-27,28,20,11,10,7,4,73,58,42,30.38,30.31,30.25,10,10,10,15,6,17,0.00,1,,282
2013-11-28,36,26,15,17,13,9,80,62,44,30.53,30.31,30.15,10,10,10,14,6,17,0.00,1,,250
2013-11-29,37,24,10,21,15,6,88,66,44,30.63,30.51,30.35,10,10,7,13,5,17,0.00,0,,139
2013-11-30,50,38,25,31,26,20,92,69,46,30.33,30.16,30.05,10,10,7,15,5,18,0.00,0,,201